Time;durP1;ratioP1;P1;durP2;ratioP2;P2;SDS_P1;SDS_P2;PMS_P1;PMS_P2;Temp;Humidity;BMP_temperature;BMP_pressure;BME280_temperature;BME280_humidity;BME280_pressure;Samples;Min_cycle;Max_cycle;Signal;HPM_P1;HPM_P2
2022/05/15 00:00:37;;;;;;;3.23;2.13;;;10.10;94.70;;;;;;4178588;28;20182;-68
2022/05/15 00:02:17;;;;;;;5.83;2.70;;;10.10;94.80;;;;;;4178125;28;20510;-68
2022/05/15 00:04:18;;;;;;;2.87;2.20;;;10.00;94.80;;;;;;4178260;28;20209;-68
2022/05/15 00:06:19;;;;;;;4.87;1.90;;;10.00;95.50;;;;;;4177481;28;20180;-68
2022/05/15 00:08:21;;;;;;;2.37;1.60;;;9.90;95.10;;;;;;4178191;28;20646;-68
2022/05/15 00:10:21;;;;;;;2.87;1.73;;;9.90;95.30;;;;;;4178364;28;20259;-68
2022/05/15 00:12:22;;;;;;;2.37;1.60;;;9.80;95.50;;;;;;4178617;28;20180;-68
2022/05/15 00:14:23;;;;;;;3.00;1.77;;;9.80;95.50;;;;;;4178907;28;20188;-68
2022/05/15 00:16:25;;;;;;;3.80;1.73;;;9.80;95.50;;;;;;4177762;28;20185;-68
2022/05/15 00:18:25;;;;;;;3.53;1.90;;;9.80;95.70;;;;;;4178202;28;20224;-68
2022/05/15 00:20:26;;;;;;;3.17;1.70;;;9.80;95.30;;;;;;4178137;28;20189;-68
2022/05/15 00:22:26;;;;;;;3.90;1.43;;;9.80;95.60;;;;;;4178210;28;20653;-68
2022/05/15 00:24:28;;;;;;;4.40;1.60;;;9.70;95.40;;;;;;4178301;28;20233;-68
2022/05/15 00:26:28;;;;;;;2.57;1.57;;;9.70;95.80;;;;;;4177803;28;20168;-68
2022/05/15 00:28:29;;;;;;;2.53;1.60;;;9.60;95.70;;;;;;4178096;28;20233;-68
2022/05/15 00:30:30;;;;;;;2.20;1.40;;;9.60;95.70;;;;;;4178146;28;20178;-68
2022/05/15 00:32:32;;;;;;;2.33;1.47;;;9.60;95.90;;;;;;4178193;28;20220;-69
2022/05/15 00:34:32;;;;;;;1.97;1.77;;;9.50;95.80;;;;;;4178193;28;20216;-68
2022/05/15 00:36:34;;;;;;;1.80;1.60;;;9.50;96.00;;;;;;4177662;28;20180;-68
2022/05/15 00:38:34;;;;;;;2.53;1.60;;;9.50;96.00;;;;;;4178145;28;20184;-68
2022/05/15 00:40:38;;;;;;;4.93;1.80;;;9.50;96.00;;;;;;4178002;28;20967;-68
2022/05/15 00:42:39;;;;;;;4.80;1.90;;;9.50;96.10;;;;;;4178225;28;20253;-68
2022/05/15 00:44:39;;;;;;;2.27;1.70;;;9.50;96.50;;;;;;4179462;28;20185;-69
2022/05/15 00:46:41;;;;;;;2.53;1.90;;;9.50;96.50;;;;;;4180531;28;20322;-68
2022/05/15 00:48:43;;;;;;;4.50;1.80;;;9.40;96.50;;;;;;4181034;28;20196;-68
2022/05/15 00:50:43;;;;;;;4.13;2.33;;;9.40;96.70;;;;;;4180944;28;20310;-68
2022/05/15 00:52:48;;;;;;;1.53;1.40;;;9.40;96.80;;;;;;4181103;28;20930;-68
2022/05/15 00:55:21;;;;;;;2.03;1.60;;;9.40;96.70;;;;;;4181116;28;20176;-68
2022/05/15 00:57:28;;;;;;;2.27;1.33;;;9.30;96.70;;;;;;4180940;28;20808;-69
2022/05/15 00:59:34;;;;;;;1.90;1.50;;;9.30;96.90;;;;;;4181100;28;21190;-68
2022/05/15 01:01:34;;;;;;;2.37;1.67;;;9.20;96.70;;;;;;4212087;28;20444;-68
2022/05/15 01:03:35;;;;;;;4.50;1.93;;;9.20;97.30;;;;;;4192570;28;20191;-69
2022/05/15 01:05:40;;;;;;;2.37;1.70;;;9.20;97.40;;;;;;4196775;28;20207;-68
2022/05/15 01:07:41;;;;;;;2.33;1.53;;;9.20;97.30;;;;;;4197440;28;20277;-68
2022/05/15 01:09:41;;;;;;;3.60;1.67;;;9.20;97.10;;;;;;4197715;28;21161;-68
2022/05/15 01:11:46;;;;;;;2.27;1.70;;;9.20;97.30;;;;;;4197613;28;20360;-68
2022/05/15 01:13:50;;;;;;;3.50;1.67;;;9.20;97.40;;;;;;4197520;28;20305;-68
2022/05/15 01:15:50;;;;;;;2.60;1.33;;;9.20;97.30;;;;;;4196783;28;20418;-69
2022/05/15 01:17:51;;;;;;;4.43;1.70;;;9.10;97.60;;;;;;4197308;28;20422;-68
2022/05/15 01:20:03;;;;;;;8.03;2.20;;;9.10;97.90;;;;;;4197221;28;20183;-68
2022/05/15 01:22:05;;;;;;;4.07;2.00;;;9.10;97.90;;;;;;4197179;28;20195;-68
2022/05/15 01:24:08;;;;;;;2.60;1.77;;;9.00;97.80;;;;;;4197240;28;20766;-68
2022/05/15 01:26:08;;;;;;;3.50;2.00;;;9.00;98.00;;;;;;4196569;28;20820;-68
2022/05/15 01:28:11;;;;;;;2.70;1.90;;;8.90;98.00;;;;;;4197200;28;20410;-68
2022/05/15 01:30:12;;;;;;;2.20;1.60;;;8.90;97.90;;;;;;4197319;28;20210;-68
2022/05/15 01:32:13;;;;;;;1.93;1.53;;;8.90;98.00;;;;;;4197394;28;21069;-68
2022/05/15 01:34:13;;;;;;;3.20;2.00;;;8.90;98.00;;;;;;4197027;28;20189;-68
2022/05/15 01:36:15;;;;;;;3.87;1.70;;;8.90;97.70;;;;;;4196478;28;20776;-68
2022/05/15 01:38:18;;;;;;;2.93;1.60;;;8.80;98.30;;;;;;4196947;28;20210;-68
2022/05/15 01:40:19;;;;;;;3.63;1.70;;;8.90;98.30;;;;;;4196948;28;20418;-68
2022/05/15 01:42:19;;;;;;;2.60;1.93;;;8.90;98.30;;;;;;4197044;28;20936;-68
2022/05/15 01:44:20;;;;;;;3.67;1.80;;;8.90;98.10;;;;;;4196935;28;20219;-68
2022/05/15 01:46:22;;;;;;;3.37;1.77;;;8.80;98.30;;;;;;4196186;28;20184;-68
2022/05/15 01:48:23;;;;;;;2.47;1.70;;;8.80;98.50;;;;;;4197127;28;20822;-68
2022/05/15 01:50:23;;;;;;;2.07;1.80;;;8.80;98.50;;;;;;4212231;28;20498;-68
2022/05/15 01:52:24;;;;;;;4.13;1.80;;;8.80;98.50;;;;;;4197177;28;20180;-68
2022/05/15 01:54:24;;;;;;;2.00;1.80;;;8.70;98.50;;;;;;4195756;28;20222;-68
2022/05/15 01:56:25;;;;;;;1.87;1.47;;;8.70;98.70;;;;;;4195312;28;20187;-68
2022/05/15 01:58:25;;;;;;;3.13;1.77;;;8.70;98.50;;;;;;4196765;28;20185;-69
2022/05/15 02:00:27;;;;;;;3.57;2.00;;;8.70;98.90;;;;;;4196827;28;20708;-68
2022/05/15 02:02:30;;;;;;;2.63;2.03;;;8.60;99.10;;;;;;4196860;28;20263;-68
2022/05/15 02:04:30;;;;;;;2.27;1.67;;;8.60;98.80;;;;;;4196652;28;20486;-68
2022/05/15 02:06:31;;;;;;;3.23;1.80;;;8.60;99.00;;;;;;4195893;28;20463;-68
2022/05/15 02:08:34;;;;;;;2.30;1.60;;;8.60;98.70;;;;;;4196489;28;20208;-68
2022/05/15 02:10:35;;;;;;;2.80;2.17;;;8.60;98.70;;;;;;4188903;28;20616;-67
2022/05/15 02:12:37;;;;;;;3.10;1.90;;;8.60;98.80;;;;;;4196198;28;20430;-70
2022/05/15 02:14:37;;;;;;;2.70;2.13;;;8.60;98.90;;;;;;4196529;28;20446;-68
2022/05/15 02:16:38;;;;;;;2.00;1.63;;;8.60;98.80;;;;;;4195798;28;20967;-67
2022/05/15 02:18:39;;;;;;;2.90;2.07;;;8.60;98.60;;;;;;4196290;28;20646;-68
2022/05/15 02:20:39;;;;;;;2.53;1.60;;;8.50;99.10;;;;;;4196279;28;20344;-68
2022/05/15 02:22:40;;;;;;;4.63;1.83;;;8.50;99.20;;;;;;4196344;28;20188;-68
2022/05/15 02:24:41;;;;;;;2.50;1.90;;;8.50;99.20;;;;;;4196288;28;20185;-68
2022/05/15 02:26:41;;;;;;;2.47;1.63;;;8.50;99.30;;;;;;4192744;28;20473;-68
2022/05/15 02:28:42;;;;;;;3.37;1.83;;;8.50;99.20;;;;;;4196015;28;20203;-68
2022/05/15 02:30:43;;;;;;;3.27;1.80;;;8.40;99.30;;;;;;4196230;28;20685;-68
2022/05/15 02:32:43;;;;;;;3.80;2.13;;;8.40;99.50;;;;;;4196293;28;20523;-68
2022/05/15 02:34:44;;;;;;;3.30;1.93;;;8.40;99.30;;;;;;4196030;28;20179;-68
2022/05/15 02:36:44;;;;;;;2.37;2.00;;;8.40;99.90;;;;;;4195531;28;20172;-68
2022/05/15 02:38:44;;;;;;;2.07;1.87;;;8.30;99.80;;;;;;4196094;28;20215;-68
2022/05/15 02:40:45;;;;;;;4.07;2.37;;;8.30;99.70;;;;;;4196239;28;20307;-68
2022/05/15 02:42:46;;;;;;;3.00;1.90;;;8.30;99.90;;;;;;4196221;28;20549;-68
2022/05/15 02:44:47;;;;;;;3.37;1.70;;;8.30;99.80;;;;;;4196164;28;20382;-68
2022/05/15 02:46:47;;;;;;;2.23;1.90;;;8.30;99.90;;;;;;4195425;28;20189;-68
2022/05/15 02:51:08;;;;;;;3.33;2.40;;;8.30;99.60;;;;;;4196073;28;20206;-68
2022/05/15 02:53:09;;;;;;;3.23;1.73;;;8.30;99.70;;;;;;4195713;28;20417;-67
2022/05/15 02:55:10;;;;;;;3.03;2.07;;;8.20;99.80;;;;;;4195333;28;20414;-68
2022/05/15 02:57:11;;;;;;;2.83;2.10;;;8.20;99.90;;;;;;4195001;28;20714;-68
2022/05/15 02:59:12;;;;;;;2.70;2.00;;;8.20;99.90;;;;;;4195702;28;20472;-68
2022/05/15 03:01:13;;;;;;;2.67;2.20;;;8.10;99.90;;;;;;4195800;28;20200;-68
2022/05/15 03:03:13;;;;;;;1.90;1.47;;;8.10;99.90;;;;;;4195439;28;20180;-68
2022/05/15 03:05:15;;;;;;;3.87;1.90;;;8.10;99.90;;;;;;4195248;28;20487;-68
2022/05/15 03:07:16;;;;;;;5.90;2.20;;;8.10;99.90;;;;;;4194987;28;20967;-67
2022/05/15 03:09:16;;;;;;;3.27;1.80;;;8.00;99.90;;;;;;4195493;28;20458;-68
2022/05/15 03:11:17;;;;;;;3.03;1.73;;;8.10;99.90;;;;;;4195497;28;21370;-68
2022/05/15 03:13:18;;;;;;;2.60;1.80;;;8.10;99.90;;;;;;4195435;28;20180;-67
2022/05/15 03:15:20;;;;;;;2.87;2.13;;;8.10;99.90;;;;;;4195327;28;20176;-67
2022/05/15 03:17:21;;;;;;;3.50;1.80;;;8.10;99.90;;;;;;4195018;28;20259;-67
2022/05/15 03:19:21;;;;;;;2.90;2.13;;;8.10;99.90;;;;;;4195226;28;20416;-67
2022/05/15 03:21:31;;;;;;;3.00;1.77;;;8.00;99.90;;;;;;4195147;28;20222;-67
2022/05/15 03:23:32;;;;;;;2.77;1.90;;;7.90;99.90;;;;;;4195442;28;20179;-68
2022/05/15 03:25:33;;;;;;;1.73;1.60;;;7.90;99.90;;;;;;4194279;28;20428;-68
2022/05/15 03:27:34;;;;;;;1.80;1.40;;;7.90;99.90;;;;;;4195097;28;20175;-68
2022/05/15 03:29:35;;;;;;;2.47;1.87;;;7.90;99.90;;;;;;4195162;28;20453;-67
2022/05/15 03:31:36;;;;;;;3.17;2.20;;;8.00;99.90;;;;;;4195588;28;20887;-67
2022/05/15 03:33:36;;;;;;;2.00;1.80;;;8.00;99.90;;;;;;4195187;28;20172;-68
2022/05/15 03:35:37;;;;;;;2.63;1.67;;;7.90;99.90;;;;;;4194709;28;20497;-68
2022/05/15 03:37:39;;;;;;;2.23;1.60;;;8.00;99.90;;;;;;4194996;28;20686;-67
2022/05/15 03:39:39;;;;;;;3.40;1.63;;;7.90;99.90;;;;;;4194965;28;20975;-68
2022/05/15 03:41:40;;;;;;;2.77;2.07;;;7.90;99.90;;;;;;4195293;28;20449;-67
2022/05/15 03:43:41;;;;;;;3.80;2.03;;;7.80;99.90;;;;;;4195124;28;20591;-67
2022/05/15 03:45:41;;;;;;;2.80;1.77;;;7.80;99.90;;;;;;4194426;28;20187;-68
2022/05/15 03:47:47;;;;;;;2.37;2.00;;;7.80;99.90;;;;;;4195461;28;20175;-67
2022/05/15 03:49:48;;;;;;;4.83;2.00;;;7.80;99.90;;;;;;4196404;28;20211;-67
2022/05/15 03:51:49;;;;;;;2.37;1.90;;;7.80;99.90;;;;;;4196477;28;20486;-66
2022/05/15 03:53:50;;;;;;;3.70;2.00;;;7.80;99.90;;;;;;4196456;28;20183;-67
2022/05/15 03:55:55;;;;;;;4.50;1.73;;;7.80;99.90;;;;;;4196169;28;20239;-67
2022/05/15 03:57:56;;;;;;;4.30;2.00;;;7.70;99.90;;;;;;4196255;28;20422;-67
2022/05/15 03:59:57;;;;;;;1.97;1.77;;;7.70;99.90;;;;;;4196365;28;20426;-68
2022/05/15 04:01:59;;;;;;;2.80;1.90;;;7.70;99.90;;;;;;4196323;28;20441;-68
2022/05/15 04:03:59;;;;;;;4.33;2.00;;;7.70;99.90;;;;;;4196051;28;20176;-68
2022/05/15 04:06:01;;;;;;;2.97;1.90;;;7.70;99.90;;;;;;4196027;28;20793;-68
2022/05/15 04:08:02;;;;;;;2.40;2.20;;;7.80;99.90;;;;;;4197113;28;20549;-68
2022/05/15 04:10:03;;;;;;;6.03;1.93;;;7.80;99.90;;;;;;4196465;28;20458;-68
2022/05/15 04:12:04;;;;;;;2.07;1.77;;;7.90;99.90;;;;;;4196941;28;20499;-68
2022/05/15 04:14:05;;;;;;;2.80;1.50;;;7.90;99.90;;;;;;4196642;28;20229;-69
2022/05/15 04:16:05;;;;;;;2.33;1.73;;;8.00;99.90;;;;;;4196061;28;20418;-68
2022/05/15 04:18:06;;;;;;;3.83;1.70;;;8.00;99.90;;;;;;4195842;28;20188;-68
2022/05/15 04:20:07;;;;;;;2.27;1.60;;;8.10;99.90;;;;;;4196945;28;20175;-68
2022/05/15 04:22:09;;;;;;;2.37;1.60;;;8.10;99.90;;;;;;4198003;28;20211;-68
2022/05/15 04:24:14;;;;;;;5.90;1.97;;;8.10;99.90;;;;;;4212731;28;20462;-68
2022/05/15 04:26:15;;;;;;;3.17;2.00;;;8.00;99.90;;;;;;4197044;28;20890;-68
2022/05/15 04:28:16;;;;;;;4.50;1.87;;;8.00;99.90;;;;;;4197698;28;20457;-68
2022/05/15 04:30:21;;;;;;;2.13;1.70;;;8.00;99.90;;;;;;4198103;28;20857;-69
2022/05/15 04:32:22;;;;;;;2.67;2.00;;;8.00;99.90;;;;;;4198300;28;20409;-68
2022/05/15 04:34:27;;;;;;;1.70;1.60;;;8.00;99.90;;;;;;4197896;28;20402;-69
2022/05/15 04:36:28;;;;;;;2.43;2.23;;;8.00;99.90;;;;;;4197222;28;20180;-68
2022/05/15 04:38:29;;;;;;;2.37;1.97;;;8.00;99.90;;;;;;4197869;28;20476;-68
2022/05/15 04:40:30;;;;;;;3.07;1.93;;;8.10;99.90;;;;;;4197571;28;20408;-68
2022/05/15 04:42:31;;;;;;;2.77;1.77;;;8.10;99.90;;;;;;4197613;28;20180;-68
2022/05/15 04:44:31;;;;;;;4.13;1.80;;;8.20;99.90;;;;;;4197557;28;20231;-68
2022/05/15 04:46:32;;;;;;;2.67;1.60;;;8.10;99.90;;;;;;4196780;28;20643;-68
2022/05/15 04:48:33;;;;;;;2.77;1.47;;;8.20;99.90;;;;;;4197329;28;20226;-68
2022/05/15 04:50:37;;;;;;;1.93;1.70;;;8.30;99.90;;;;;;4197590;28;20212;-68
2022/05/15 04:52:37;;;;;;;1.43;1.33;;;8.40;99.90;;;;;;4197474;28;21162;-68
2022/05/15 04:54:38;;;;;;;2.63;1.80;;;8.40;99.90;;;;;;4197417;28;20414;-68
2022/05/15 04:56:38;;;;;;;3.90;2.17;;;8.50;99.80;;;;;;4196857;28;20176;-68
2022/05/15 04:58:39;;;;;;;1.73;1.30;;;8.50;99.30;;;;;;4197256;28;20179;-68
2022/05/15 05:00:43;;;;;;;3.03;2.07;;;8.50;99.60;;;;;;4197594;28;20240;-68
2022/05/15 05:02:44;;;;;;;7.83;1.77;;;8.70;99.10;;;;;;4197475;28;20179;-68
2022/05/15 05:04:44;;;;;;;1.77;1.50;;;8.70;99.00;;;;;;4197282;28;20664;-69
2022/05/15 05:06:45;;;;;;;5.57;2.07;;;8.80;99.00;;;;;;4196691;28;20433;-68
2022/05/15 05:08:45;;;;;;;1.93;1.70;;;8.80;98.80;;;;;;4197091;28;20573;-68
2022/05/15 05:10:46;;;;;;;2.07;1.70;;;8.90;98.80;;;;;;4197015;28;20196;-68
2022/05/15 05:12:46;;;;;;;3.80;1.43;;;8.90;99.10;;;;;;4197225;28;20695;-68
2022/05/15 05:14:47;;;;;;;2.77;1.50;;;9.00;98.50;;;;;;4197061;28;20172;-68
2022/05/15 05:16:48;;;;;;;3.70;1.50;;;9.00;98.90;;;;;;4196588;28;20554;-68
2022/05/15 05:18:49;;;;;;;2.17;1.63;;;9.10;99.10;;;;;;4197007;28;20238;-68
2022/05/15 05:20:50;;;;;;;2.50;1.60;;;9.10;98.30;;;;;;4196886;28;20589;-68
2022/05/15 05:22:51;;;;;;;2.10;1.50;;;9.20;98.40;;;;;;4197399;28;20266;-68
2022/05/15 05:24:51;;;;;;;3.43;2.10;;;9.20;98.00;;;;;;4196793;28;20258;-68
2022/05/15 05:26:52;;;;;;;1.93;1.50;;;9.30;97.90;;;;;;4196402;28;20924;-68
2022/05/15 05:28:54;;;;;;;1.43;1.33;;;9.40;97.80;;;;;;4196790;28;20203;-68
2022/05/15 05:30:54;;;;;;;4.23;1.80;;;9.40;97.60;;;;;;4195595;28;20820;-69
2022/05/15 05:32:55;;;;;;;3.10;1.60;;;9.50;97.20;;;;;;4196811;28;20234;-68
2022/05/15 05:34:55;;;;;;;1.90;1.20;;;9.60;96.80;;;;;;4196372;28;20181;-68
2022/05/15 05:36:56;;;;;;;1.50;1.13;;;9.70;96.50;;;;;;4196233;28;20516;-68
2022/05/15 05:38:57;;;;;;;1.53;1.20;;;9.70;95.90;;;;;;4196800;28;20686;-68
2022/05/15 05:40:58;;;;;;;2.80;1.70;;;9.90;95.50;;;;;;4196608;28;20272;-68
2022/05/15 05:42:59;;;;;;;1.77;1.37;;;9.90;95.50;;;;;;4196596;28;20175;-68
2022/05/15 05:45:02;;;;;;;1.53;1.40;;;9.90;95.70;;;;;;4196515;28;20210;-68
2022/05/15 05:47:02;;;;;;;2.53;1.50;;;10.00;95.90;;;;;;4196216;28;20174;-68
2022/05/15 05:49:03;;;;;;;2.27;1.30;;;10.10;95.40;;;;;;4196468;28;20221;-68
2022/05/15 05:51:03;;;;;;;2.17;1.50;;;10.20;95.10;;;;;;4196831;28;20251;-68
2022/05/15 05:53:05;;;;;;;2.63;1.60;;;10.20;95.80;;;;;;4196486;28;20198;-68
2022/05/15 05:55:08;;;;;;;1.50;1.40;;;10.20;96.20;;;;;;4196260;28;20650;-68
2022/05/15 05:57:09;;;;;;;1.60;1.43;;;10.30;95.60;;;;;;4195996;28;20194;-68
2022/05/15 05:59:09;;;;;;;1.47;1.23;;;10.40;95.20;;;;;;4196512;28;20182;-68
2022/05/15 06:01:10;;;;;;;2.73;1.63;;;10.50;94.70;;;;;;4196319;28;20571;-68
2022/05/15 06:05:29;;;;;;;5.33;1.63;;;10.60;95.00;;;;;;4195860;28;20170;-68
2022/05/15 06:07:31;;;;;;;1.97;1.50;;;10.70;94.80;;;;;;4196434;28;20207;-69
2022/05/15 06:09:31;;;;;;;1.73;1.53;;;10.80;94.90;;;;;;4196464;28;20228;-68
2022/05/15 06:11:32;;;;;;;2.27;1.80;;;10.80;95.30;;;;;;4196254;28;20281;-68
2022/05/15 06:13:32;;;;;;;3.50;1.47;;;10.90;96.20;;;;;;4196158;28;20179;-68
2022/05/15 06:15:34;;;;;;;2.07;1.60;;;11.00;95.80;;;;;;4195578;28;20171;-68
2022/05/15 06:17:34;;;;;;;2.87;1.60;;;11.20;95.50;;;;;;4196220;28;20258;-68
2022/05/15 06:19:35;;;;;;;2.80;1.80;;;11.30;94.90;;;;;;4196059;28;20180;-68
2022/05/15 06:21:36;;;;;;;1.90;1.50;;;11.40;95.20;;;;;;4196201;28;20226;-68
2022/05/15 06:23:36;;;;;;;3.47;1.57;;;11.50;95.10;;;;;;4196204;28;20172;-68
2022/05/15 06:25:37;;;;;;;3.80;1.90;;;11.60;94.90;;;;;;4195555;28;20664;-68
2022/05/15 06:27:39;;;;;;;2.07;1.70;;;11.70;94.90;;;;;;4196235;28;20186;-68
2022/05/15 06:29:41;;;;;;;2.97;1.47;;;11.80;94.40;;;;;;4196173;28;20206;-68
2022/05/15 06:31:41;;;;;;;1.80;1.53;;;12.00;94.30;;;;;;4196138;28;20198;-68
2022/05/15 06:33:42;;;;;;;2.00;1.57;;;12.10;94.10;;;;;;4196038;28;20255;-69
2022/05/15 06:35:44;;;;;;;2.37;1.83;;;12.20;93.40;;;;;;4195472;28;20175;-68
2022/05/15 06:37:44;;;;;;;1.93;1.37;;;12.40;92.80;;;;;;4196036;28;20172;-68
2022/05/15 06:39:45;;;;;;;4.20;1.90;;;12.60;92.30;;;;;;4195991;28;20193;-68
2022/05/15 06:41:50;;;;;;;2.97;1.93;;;12.60;92.30;;;;;;4195453;28;20682;-68
2022/05/15 06:43:50;;;;;;;4.07;1.63;;;12.80;91.50;;;;;;4195767;28;20182;-68
2022/05/15 06:45:51;;;;;;;3.10;1.40;;;12.80;92.00;;;;;;4195227;28;20211;-68
2022/05/15 06:47:52;;;;;;;1.70;1.50;;;13.00;91.10;;;;;;4195847;28;20184;-68
2022/05/15 06:49:53;;;;;;;3.17;1.93;;;13.30;90.00;;;;;;4195637;28;20212;-68
2022/05/15 06:51:53;;;;;;;4.30;1.93;;;13.40;89.10;;;;;;4195844;28;20211;-68
2022/05/15 06:53:54;;;;;;;3.83;1.90;;;13.70;88.30;;;;;;4195770;28;20175;-68
2022/05/15 06:58:14;;;;;;;4.57;2.00;;;14.00;87.00;;;;;;4195965;28;20163;-68
2022/05/15 07:00:18;;;;;;;3.50;1.97;;;14.20;84.20;;;;;;4195729;28;20213;-67
2022/05/15 07:02:19;;;;;;;2.27;1.87;;;14.40;81.80;;;;;;4195613;28;20172;-67
2022/05/15 07:04:19;;;;;;;2.97;1.77;;;14.30;82.60;;;;;;4195757;28;20207;-68
2022/05/15 07:06:20;;;;;;;3.40;2.00;;;14.80;78.60;;;;;;4195513;28;20617;-67
2022/05/15 07:08:21;;;;;;;2.63;1.70;;;15.10;75.10;;;;;;4195661;28;20184;-67
2022/05/15 07:10:22;;;;;;;3.60;1.60;;;15.40;73.10;;;;;;4195347;28;20681;-68
2022/05/15 07:12:26;;;;;;;2.30;1.60;;;15.60;70.90;;;;;;4195469;28;20171;-68
2022/05/15 07:14:26;;;;;;;3.47;2.00;;;15.90;69.90;;;;;;4195532;28;20171;-68
2022/05/15 07:16:27;;;;;;;3.13;1.60;;;16.10;69.70;;;;;;4194879;28;20175;-67
2022/05/15 07:18:28;;;;;;;3.70;2.13;;;16.20;69.30;;;;;;4195350;28;20224;-68
2022/05/15 07:20:28;;;;;;;2.33;1.80;;;16.30;70.10;;;;;;4195371;28;20198;-68
2022/05/15 07:22:29;;;;;;;3.97;2.27;;;16.50;66.20;;;;;;4195318;28;20297;-68
2022/05/15 07:24:29;;;;;;;4.63;1.90;;;16.60;67.00;;;;;;4195195;28;20186;-68
2022/05/15 07:26:31;;;;;;;2.60;1.63;;;16.60;66.30;;;;;;4194575;28;20860;-67
2022/05/15 07:28:31;;;;;;;2.40;1.80;;;16.80;66.10;;;;;;4195057;28;20201;-67
2022/05/15 07:30:32;;;;;;;2.47;1.83;;;16.90;66.90;;;;;;4195071;28;20191;-67
2022/05/15 07:32:32;;;;;;;2.83;2.00;;;17.10;64.40;;;;;;4195140;28;20631;-67
2022/05/15 07:34:33;;;;;;;3.53;2.00;;;17.20;66.00;;;;;;4194852;28;20211;-68
2022/05/15 07:36:34;;;;;;;2.27;1.93;;;17.40;64.10;;;;;;4194597;28;20631;-68
2022/05/15 07:38:35;;;;;;;4.43;2.13;;;17.60;63.70;;;;;;4194826;28;20186;-68
2022/05/15 07:40:35;;;;;;;3.10;1.77;;;17.80;65.70;;;;;;4194751;28;20747;-67
2022/05/15 07:42:38;;;;;;;3.83;1.90;;;17.90;60.60;;;;;;4195057;28;20175;-68
2022/05/15 07:44:39;;;;;;;2.93;1.90;;;18.00;62.40;;;;;;4194917;28;20259;-67
2022/05/15 07:46:40;;;;;;;2.00;1.80;;;18.10;59.90;;;;;;4194734;28;20214;-67
2022/05/15 07:48:40;;;;;;;2.70;1.70;;;18.30;60.00;;;;;;4194958;28;20183;-68
2022/05/15 07:50:41;;;;;;;3.30;1.90;;;18.50;59.40;;;;;;4194845;28;20223;-67
2022/05/15 07:52:41;;;;;;;4.50;1.73;;;18.60;58.70;;;;;;4195037;28;20171;-67
2022/05/15 07:54:42;;;;;;;3.23;2.00;;;18.60;64.30;;;;;;4194062;28;20176;-68
2022/05/15 07:56:43;;;;;;;2.57;2.00;;;18.70;62.40;;;;;;4194030;28;20207;-68
2022/05/15 07:58:44;;;;;;;2.73;1.90;;;18.80;60.00;;;;;;4194797;28;20550;-68
2022/05/15 08:00:44;;;;;;;2.30;2.00;;;19.00;59.40;;;;;;4194609;28;20219;-68
2022/05/15 08:02:45;;;;;;;3.23;1.83;;;19.30;58.50;;;;;;4194734;28;20679;-67
2022/05/15 08:09:24;;;;;;;3.13;2.17;;;19.40;53.70;;;;;;4194895;28;20225;-67
2022/05/15 08:11:28;;;;;;;2.67;1.93;;;19.30;55.70;;;;;;4194803;28;20278;-67
2022/05/15 08:13:29;;;;;;;2.27;2.07;;;19.20;52.90;;;;;;4194712;28;20203;-67
2022/05/15 08:15:30;;;;;;;1.90;1.60;;;19.30;54.70;;;;;;4194047;28;20175;-67
2022/05/15 08:17:31;;;;;;;2.97;2.13;;;19.30;54.00;;;;;;4194292;28;20176;-67
2022/05/15 08:24:11;;;;;;;3.47;2.00;;;19.70;52.70;;;;;;4194894;28;20207;-67
2022/05/15 08:26:11;;;;;;;3.80;2.20;;;19.80;53.40;;;;;;4194016;28;20601;-67
2022/05/15 08:28:12;;;;;;;3.77;1.80;;;19.80;51.70;;;;;;4194638;28;20309;-67
2022/05/15 08:30:15;;;;;;;3.47;1.90;;;19.70;50.30;;;;;;4194938;28;20203;-67
2022/05/15 08:32:15;;;;;;;3.00;1.83;;;19.60;51.30;;;;;;4194645;28;20662;-67
2022/05/15 08:34:16;;;;;;;3.23;1.80;;;19.60;51.60;;;;;;4194427;28;20176;-68
2022/05/15 08:36:17;;;;;;;2.57;1.83;;;19.70;51.10;;;;;;4193991;28;20180;-67
2022/05/15 08:38:18;;;;;;;4.47;2.00;;;19.80;52.90;;;;;;4194595;28;20203;-68
2022/05/15 08:40:24;;;;;;;3.20;1.70;;;19.90;50.50;;;;;;4194633;28;20275;-67
2022/05/15 08:42:54;;;;;;;2.43;1.90;;;19.90;50.90;;;;;;4194327;28;20734;-67
2022/05/15 08:45:00;;;;;;;2.73;1.60;;;20.20;52.90;;;;;;4194504;28;20166;-67
2022/05/15 08:47:16;;;;;;;2.47;1.63;;;20.30;51.90;;;;;;4194103;28;20646;-67
2022/05/15 08:49:36;;;;;;;3.43;2.17;;;20.50;51.40;;;;;;4194568;28;20761;-68
2022/05/15 08:51:41;;;;;;;2.87;1.73;;;20.40;50.10;;;;;;4188224;28;20203;-67
2022/05/15 08:53:46;;;;;;;2.77;1.93;;;20.30;50.00;;;;;;4197851;28;20178;-68
2022/05/15 08:55:50;;;;;;;3.23;1.90;;;20.10;50.00;;;;;;4204829;28;20217;-68
2022/05/15 08:58:01;;;;;;;3.40;1.80;;;20.20;50.10;;;;;;4199254;28;20171;-67
2022/05/15 09:00:06;;;;;;;1.90;1.80;;;20.40;50.20;;;;;;4203610;28;20163;-69
2022/05/15 09:02:11;;;;;;;3.00;2.50;;;20.70;48.80;;;;;;4201212;28;20555;-70
2022/05/15 09:04:11;;;;;;;2.47;2.00;;;20.60;48.60;;;;;;4202416;28;20886;-71
2022/05/15 09:06:42;;;;;;;5.73;2.40;;;20.70;49.10;;;;;;4203675;28;20274;-69
2022/05/15 09:09:05;;;;;;;2.77;1.83;;;20.80;47.00;;;;;;4200748;28;20179;-69
2022/05/15 09:11:09;;;;;;;2.00;1.70;;;20.80;48.60;;;;;;4212677;28;20288;-68
2022/05/15 09:13:16;;;;;;;4.20;2.20;;;21.20;52.50;;;;;;4197360;28;20172;-69
2022/05/15 09:15:22;;;;;;;2.00;1.70;;;21.40;49.00;;;;;;4197101;28;20351;-69
2022/05/15 09:17:44;;;;;;;2.20;1.93;;;21.60;47.90;;;;;;4211942;28;20155;-68
2022/05/15 09:19:50;;;;;;;2.40;1.80;;;21.70;47.00;;;;;;4201157;28;20209;-68
2022/05/15 09:21:56;;;;;;;1.93;1.80;;;22.00;47.10;;;;;;4208193;28;20792;-68
2022/05/15 09:24:06;;;;;;;3.17;1.87;;;22.00;44.20;;;;;;4203055;28;20179;-70
2022/05/15 09:26:26;;;;;;;3.53;1.93;;;21.80;46.00;;;;;;4206271;28;20187;-67
2022/05/15 09:28:28;;;;;;;3.03;2.00;;;22.10;46.80;;;;;;4207059;28;20335;-68
2022/05/15 09:30:36;;;;;;;1.90;1.60;;;22.00;43.50;;;;;;4202689;28;20186;-68
2022/05/15 09:32:41;;;;;;;3.03;1.80;;;22.00;45.00;;;;;;4208348;28;20796;-68
2022/05/15 09:34:43;;;;;;;6.63;2.57;;;21.50;44.70;;;;;;4199416;28;20188;-68
2022/05/15 09:36:44;;;;;;;3.60;1.83;;;21.40;42.40;;;;;;4201768;28;20228;-68
2022/05/15 09:38:47;;;;;;;4.73;2.30;;;21.60;43.00;;;;;;4209277;28;20224;-68
2022/05/15 09:43:33;;;;;;;3.67;2.20;;;21.60;44.60;;;;;;4212693;28;20569;-70
2022/05/15 09:45:35;;;;;;;3.23;1.80;;;22.00;44.90;;;;;;4185205;28;20167;-68
2022/05/15 09:47:38;;;;;;;4.83;2.03;;;22.10;43.50;;;;;;4209856;28;20639;-68
2022/05/15 09:49:38;;;;;;;3.17;1.90;;;22.20;42.00;;;;;;4199547;28;20738;-67
2022/05/15 09:51:43;;;;;;;2.37;1.77;;;22.10;41.50;;;;;;4208949;28;20196;-68
2022/05/15 09:53:50;;;;;;;3.53;1.87;;;22.50;41.10;;;;;;4200515;28;20254;-71
2022/05/15 09:56:20;;;;;;;4.93;2.00;;;22.60;41.60;;;;;;4206956;28;20172;-71
2022/05/15 09:58:20;;;;;;;2.23;1.60;;;22.70;42.80;;;;;;4204714;28;20675;-71
2022/05/15 10:00:23;;;;;;;2.63;2.10;;;22.90;42.50;;;;;;4202982;28;20187;-70
2022/05/15 10:02:46;;;;;;;4.17;2.47;;;23.00;41.60;;;;;;4203744;28;20212;-72
2022/05/15 10:04:49;;;;;;;2.20;2.00;;;22.90;43.20;;;;;;4199003;28;20219;-71
2022/05/15 10:06:57;;;;;;;6.30;1.93;;;23.20;40.60;;;;;;4208535;28;20205;-70
2022/05/15 10:09:06;;;;;;;3.53;2.00;;;23.20;42.10;;;;;;4196904;28;20642;-70
2022/05/15 10:11:18;;;;;;;3.27;2.07;;;23.90;38.70;;;;;;4211796;28;20566;-72
2022/05/15 10:13:40;;;;;;;1.80;1.60;;;24.50;38.40;;;;;;4180893;28;20222;-69
2022/05/15 10:15:44;;;;;;;3.23;1.93;;;24.30;39.40;;;;;;4204286;28;20184;-71
2022/05/15 10:17:52;;;;;;;3.37;2.00;;;24.20;39.40;;;;;;4193880;28;20255;-71
2022/05/15 10:20:04;;;;;;;3.07;2.10;;;24.40;36.80;;;;;;4195433;28;20179;-71
2022/05/15 10:22:32;;;;;;;1.77;1.67;;;24.40;37.10;;;;;;4201623;28;20595;-71
2022/05/15 10:24:41;;;;;;;2.93;2.00;;;24.10;42.20;;;;;;4200028;28;20208;-71
2022/05/15 10:26:55;;;;;;;3.07;2.00;;;24.10;37.90;;;;;;4199451;28;20221;-68
2022/05/15 10:29:19;;;;;;;3.10;2.00;;;23.50;38.50;;;;;;4209498;28;20207;-68
2022/05/15 10:31:30;;;;;;;3.13;2.20;;;23.80;39.40;;;;;;4195135;28;20223;-70
2022/05/15 10:33:38;;;;;;;3.60;2.20;;;24.20;39.40;;;;;;4190128;28;20261;-68
2022/05/15 10:35:44;;;;;;;3.60;2.10;;;24.10;37.40;;;;;;4194626;28;20307;-68
2022/05/15 10:38:08;;;;;;;2.67;2.17;;;24.50;38.40;;;;;;4195317;28;20219;-68
2022/05/15 10:40:21;;;;;;;2.50;2.03;;;25.30;38.20;;;;;;4195194;28;20191;-68
2022/05/15 10:42:30;;;;;;;2.40;2.07;;;25.20;35.00;;;;;;4188379;28;20680;-69
2022/05/15 10:44:53;;;;;;;3.47;2.27;;;26.00;34.00;;;;;;4205977;28;20189;-69
2022/05/15 10:47:03;;;;;;;4.73;2.00;;;26.20;31.40;;;;;;4196910;28;20188;-68
2022/05/15 10:49:04;;;;;;;2.70;2.00;;;26.60;31.60;;;;;;4210043;28;20214;-68
2022/05/15 10:51:21;;;;;;;3.83;2.03;;;27.00;28.80;;;;;;4196005;28;20204;-68
2022/05/15 10:58:30;;;;;;;3.00;2.23;;;27.30;30.10;;;;;;4203434;28;20254;-69
2022/05/15 11:00:59;;;;;;;4.77;2.00;;;26.60;31.40;;;;;;4200528;28;20650;-69
2022/05/15 11:03:43;;;;;;;2.67;2.00;;;27.20;29.40;;;;;;4209730;28;20190;-71
2022/05/15 11:06:08;;;;;;;4.63;2.15;;;28.00;30.10;;;;;;4185034;28;20313;-71
2022/05/15 11:08:36;;;;;;;2.55;1.98;;;27.50;30.10;;;;;;4202819;28;20186;-70
2022/05/15 11:10:42;;;;;;;2.28;2.05;;;27.00;30.00;;;;;;4206150;28;20211;-71